sensor_id;sensor_type;location;lat;lon;timestamp;P1;durP1;ratioP1;P2;durP2;ratioP2
25439;SDS011;13365;52.208;5.488;2023-06-22T00:01:56;10.60;;;6.65;;
25439;SDS011;13365;52.208;5.488;2023-06-22T00:04:21;11.55;;;6.38;;
25439;SDS011;13365;52.208;5.488;2023-06-22T00:06:47;11.05;;;6.45;;
25439;SDS011;13365;52.208;5.488;2023-06-22T00:09:12;10.88;;;6.60;;
25439;SDS011;13365;52.208;5.488;2023-06-22T00:11:38;9.63;;;6.03;;
25439;SDS011;13365;52.208;5.488;2023-06-22T00:14:03;11.73;;;6.18;;
25439;SDS011;13365;52.208;5.488;2023-06-22T00:16:31;8.90;;;6.13;;
25439;SDS011;13365;52.208;5.488;2023-06-22T00:18:57;7.32;;;5.65;;
25439;SDS011;13365;52.208;5.488;2023-06-22T00:21:25;8.45;;;5.93;;
25439;SDS011;13365;52.208;5.488;2023-06-22T00:23:51;8.77;;;5.88;;
25439;SDS011;13365;52.208;5.488;2023-06-22T00:26:16;8.63;;;5.85;;
25439;SDS011;13365;52.208;5.488;2023-06-22T00:28:42;8.35;;;5.97;;
25439;SDS011;13365;52.208;5.488;2023-06-22T00:31:07;15.98;;;6.75;;
25439;SDS011;13365;52.208;5.488;2023-06-22T00:33:33;9.48;;;5.20;;
25439;SDS011;13365;52.208;5.488;2023-06-22T00:35:59;12.77;;;5.00;;
25439;SDS011;13365;52.208;5.488;2023-06-22T00:38:24;9.00;;;5.60;;
25439;SDS011;13365;52.208;5.488;2023-06-22T00:40:49;8.25;;;5.35;;
25439;SDS011;13365;52.208;5.488;2023-06-22T00:43:15;10.30;;;6.22;;
25439;SDS011;13365;52.208;5.488;2023-06-22T00:45:41;9.40;;;6.00;;
25439;SDS011;13365;52.208;5.488;2023-06-22T00:48:06;11.32;;;6.53;;
25439;SDS011;13365;52.208;5.488;2023-06-22T00:50:33;8.35;;;5.82;;
25439;SDS011;13365;52.208;5.488;2023-06-22T00:52:59;8.25;;;5.57;;
25439;SDS011;13365;52.208;5.488;2023-06-22T00:55:42;8.05;;;6.00;;
25439;SDS011;13365;52.208;5.488;2023-06-22T00:58:10;9.02;;;5.55;;
25439;SDS011;13365;52.208;5.488;2023-06-22T01:00:37;12.77;;;6.43;;
25439;SDS011;13365;52.208;5.488;2023-06-22T01:03:03;10.57;;;5.85;;
25439;SDS011;13365;52.208;5.488;2023-06-22T01:05:33;8.35;;;5.70;;
25439;SDS011;13365;52.208;5.488;2023-06-22T01:08:08;8.55;;;5.93;;
25439;SDS011;13365;52.208;5.488;2023-06-22T01:13:50;8.63;;;5.03;;
25439;SDS011;13365;52.208;5.488;2023-06-22T01:16:29;7.43;;;5.57;;
25439;SDS011;13365;52.208;5.488;2023-06-22T01:18:57;9.13;;;6.07;;
25439;SDS011;13365;52.208;5.488;2023-06-22T01:21:37;8.30;;;5.93;;
25439;SDS011;13365;52.208;5.488;2023-06-22T01:24:15;8.50;;;5.65;;
25439;SDS011;13365;52.208;5.488;2023-06-22T01:29:39;9.27;;;6.43;;
25439;SDS011;13365;52.208;5.488;2023-06-22T01:32:07;10.32;;;6.88;;
25439;SDS011;13365;52.208;5.488;2023-06-22T01:34:36;10.77;;;5.95;;
25439;SDS011;13365;52.208;5.488;2023-06-22T01:37:04;9.77;;;6.20;;
25439;SDS011;13365;52.208;5.488;2023-06-22T01:39:31;8.77;;;6.43;;
25439;SDS011;13365;52.208;5.488;2023-06-22T01:41:57;9.63;;;6.22;;
25439;SDS011;13365;52.208;5.488;2023-06-22T01:44:23;9.73;;;5.72;;
25439;SDS011;13365;52.208;5.488;2023-06-22T01:46:50;8.15;;;5.60;;
25439;SDS011;13365;52.208;5.488;2023-06-22T01:49:17;10.25;;;6.00;;
25439;SDS011;13365;52.208;5.488;2023-06-22T01:51:42;11.70;;;7.45;;
25439;SDS011;13365;52.208;5.488;2023-06-22T01:54:08;10.15;;;6.72;;
25439;SDS011;13365;52.208;5.488;2023-06-22T01:56:34;11.23;;;7.25;;
25439;SDS011;13365;52.208;5.488;2023-06-22T01:59:05;14.57;;;7.03;;
25439;SDS011;13365;52.208;5.488;2023-06-22T02:01:44;13.15;;;7.20;;
25439;SDS011;13365;52.208;5.488;2023-06-22T02:04:21;10.23;;;6.57;;
25439;SDS011;13365;52.208;5.488;2023-06-22T02:06:54;9.57;;;7.03;;
25439;SDS011;13365;52.208;5.488;2023-06-22T02:09:22;10.50;;;6.95;;
25439;SDS011;13365;52.208;5.488;2023-06-22T02:11:50;9.23;;;5.72;;
25439;SDS011;13365;52.208;5.488;2023-06-22T02:14:19;8.82;;;6.18;;
25439;SDS011;13365;52.208;5.488;2023-06-22T02:16:45;8.65;;;5.82;;
25439;SDS011;13365;52.208;5.488;2023-06-22T02:19:11;9.55;;;5.78;;
25439;SDS011;13365;52.208;5.488;2023-06-22T02:21:37;8.40;;;6.22;;
25439;SDS011;13365;52.208;5.488;2023-06-22T02:24:03;10.48;;;6.47;;
25439;SDS011;13365;52.208;5.488;2023-06-22T02:26:29;11.75;;;6.35;;
25439;SDS011;13365;52.208;5.488;2023-06-22T02:28:55;7.43;;;5.78;;
25439;SDS011;13365;52.208;5.488;2023-06-22T02:31:21;9.55;;;6.60;;
25439;SDS011;13365;52.208;5.488;2023-06-22T02:33:46;11.73;;;6.40;;
25439;SDS011;13365;52.208;5.488;2023-06-22T02:36:14;9.93;;;6.53;;
25439;SDS011;13365;52.208;5.488;2023-06-22T02:38:41;13.38;;;6.38;;
25439;SDS011;13365;52.208;5.488;2023-06-22T02:41:12;11.13;;;6.63;;
25439;SDS011;13365;52.208;5.488;2023-06-22T02:43:42;14.20;;;6.38;;
25439;SDS011;13365;52.208;5.488;2023-06-22T02:46:08;12.10;;;7.35;;
25439;SDS011;13365;52.208;5.488;2023-06-22T02:48:34;10.82;;;7.00;;
25439;SDS011;13365;52.208;5.488;2023-06-22T02:51:00;8.88;;;6.35;;
25439;SDS011;13365;52.208;5.488;2023-06-22T02:53:25;13.20;;;6.95;;
25439;SDS011;13365;52.208;5.488;2023-06-22T02:55:51;12.88;;;6.68;;
25439;SDS011;13365;52.208;5.488;2023-06-22T02:58:16;9.55;;;6.60;;
25439;SDS011;13365;52.208;5.488;2023-06-22T03:00:42;12.75;;;6.70;;
25439;SDS011;13365;52.208;5.488;2023-06-22T03:03:07;9.10;;;6.47;;
25439;SDS011;13365;52.208;5.488;2023-06-22T03:05:33;9.60;;;6.95;;
25439;SDS011;13365;52.208;5.488;2023-06-22T03:08:00;9.27;;;6.35;;
25439;SDS011;13365;52.208;5.488;2023-06-22T03:10:25;10.70;;;6.18;;
25439;SDS011;13365;52.208;5.488;2023-06-22T03:12:51;13.60;;;6.50;;
25439;SDS011;13365;52.208;5.488;2023-06-22T03:15:17;9.48;;;6.72;;
25439;SDS011;13365;52.208;5.488;2023-06-22T03:17:44;10.85;;;6.72;;
25439;SDS011;13365;52.208;5.488;2023-06-22T03:20:11;10.40;;;7.30;;
25439;SDS011;13365;52.208;5.488;2023-06-22T03:22:39;9.77;;;5.95;;
25439;SDS011;13365;52.208;5.488;2023-06-22T03:25:06;12.35;;;6.78;;
25439;SDS011;13365;52.208;5.488;2023-06-22T03:27:38;10.25;;;6.25;;
25439;SDS011;13365;52.208;5.488;2023-06-22T03:30:04;11.80;;;6.70;;
25439;SDS011;13365;52.208;5.488;2023-06-22T03:32:31;10.18;;;6.38;;
25439;SDS011;13365;52.208;5.488;2023-06-22T03:34:57;16.40;;;7.20;;
25439;SDS011;13365;52.208;5.488;2023-06-22T03:37:24;10.43;;;6.38;;
25439;SDS011;13365;52.208;5.488;2023-06-22T03:39:50;9.02;;;5.93;;
25439;SDS011;13365;52.208;5.488;2023-06-22T03:42:16;9.30;;;6.22;;
25439;SDS011;13365;52.208;5.488;2023-06-22T03:44:42;8.70;;;6.43;;
25439;SDS011;13365;52.208;5.488;2023-06-22T03:47:07;7.95;;;5.80;;
25439;SDS011;13365;52.208;5.488;2023-06-22T03:49:34;11.07;;;6.13;;
25439;SDS011;13365;52.208;5.488;2023-06-22T03:52:00;9.65;;;7.03;;
25439;SDS011;13365;52.208;5.488;2023-06-22T03:54:27;9.85;;;6.63;;
25439;SDS011;13365;52.208;5.488;2023-06-22T03:56:53;10.63;;;6.97;;
25439;SDS011;13365;52.208;5.488;2023-06-22T03:59:19;13.82;;;8.02;;
25439;SDS011;13365;52.208;5.488;2023-06-22T04:01:44;12.63;;;7.95;;
25439;SDS011;13365;52.208;5.488;2023-06-22T04:04:11;15.05;;;7.88;;
25439;SDS011;13365;52.208;5.488;2023-06-22T04:06:37;16.48;;;7.78;;
25439;SDS011;13365;52.208;5.488;2023-06-22T04:09:03;14.95;;;8.45;;
25439;SDS011;13365;52.208;5.488;2023-06-22T04:11:30;13.82;;;7.97;;
25439;SDS011;13365;52.208;5.488;2023-06-22T04:13:56;14.23;;;8.52;;
25439;SDS011;13365;52.208;5.488;2023-06-22T04:16:21;13.82;;;9.00;;
25439;SDS011;13365;52.208;5.488;2023-06-22T04:18:47;14.13;;;8.32;;
25439;SDS011;13365;52.208;5.488;2023-06-22T04:21:13;11.95;;;8.40;;
25439;SDS011;13365;52.208;5.488;2023-06-22T04:23:38;13.65;;;8.48;;
25439;SDS011;13365;52.208;5.488;2023-06-22T04:26:04;15.23;;;8.88;;
25439;SDS011;13365;52.208;5.488;2023-06-22T04:28:29;18.45;;;11.90;;
25439;SDS011;13365;52.208;5.488;2023-06-22T04:30:59;17.70;;;11.25;;
25439;SDS011;13365;52.208;5.488;2023-06-22T04:33:28;18.95;;;10.70;;
25439;SDS011;13365;52.208;5.488;2023-06-22T04:35:54;24.25;;;12.40;;
25439;SDS011;13365;52.208;5.488;2023-06-22T04:38:22;22.40;;;13.50;;
25439;SDS011;13365;52.208;5.488;2023-06-22T04:40:48;23.00;;;13.65;;
25439;SDS011;13365;52.208;5.488;2023-06-22T04:43:13;23.90;;;14.98;;
25439;SDS011;13365;52.208;5.488;2023-06-22T04:45:39;22.95;;;15.40;;
25439;SDS011;13365;52.208;5.488;2023-06-22T04:48:05;25.15;;;15.85;;
25439;SDS011;13365;52.208;5.488;2023-06-22T04:50:30;28.00;;;18.85;;
25439;SDS011;13365;52.208;5.488;2023-06-22T04:52:56;28.45;;;17.85;;
25439;SDS011;13365;52.208;5.488;2023-06-22T04:55:22;26.48;;;17.88;;
25439;SDS011;13365;52.208;5.488;2023-06-22T04:57:50;39.42;;;19.60;;
25439;SDS011;13365;52.208;5.488;2023-06-22T05:00:20;33.17;;;19.83;;
25439;SDS011;13365;52.208;5.488;2023-06-22T05:02:48;29.35;;;18.38;;
25439;SDS011;13365;52.208;5.488;2023-06-22T05:05:14;33.95;;;20.10;;
25439;SDS011;13365;52.208;5.488;2023-06-22T05:07:43;35.60;;;20.90;;
25439;SDS011;13365;52.208;5.488;2023-06-22T05:10:11;36.13;;;22.85;;
25439;SDS011;13365;52.208;5.488;2023-06-22T05:12:37;32.33;;;20.63;;
25439;SDS011;13365;52.208;5.488;2023-06-22T05:15:03;37.70;;;20.63;;
25439;SDS011;13365;52.208;5.488;2023-06-22T05:17:30;32.28;;;22.00;;
25439;SDS011;13365;52.208;5.488;2023-06-22T05:19:55;32.55;;;22.20;;
25439;SDS011;13365;52.208;5.488;2023-06-22T05:22:21;37.78;;;22.88;;
25439;SDS011;13365;52.208;5.488;2023-06-22T05:24:46;34.72;;;22.35;;
25439;SDS011;13365;52.208;5.488;2023-06-22T05:27:12;36.53;;;22.15;;
25439;SDS011;13365;52.208;5.488;2023-06-22T05:29:38;34.45;;;20.77;;
25439;SDS011;13365;52.208;5.488;2023-06-22T05:32:04;33.78;;;21.50;;
25439;SDS011;13365;52.208;5.488;2023-06-22T05:34:30;41.75;;;23.23;;
25439;SDS011;13365;52.208;5.488;2023-06-22T05:36:56;37.95;;;22.60;;
25439;SDS011;13365;52.208;5.488;2023-06-22T05:39:23;42.60;;;21.75;;
25439;SDS011;13365;52.208;5.488;2023-06-22T05:41:49;37.53;;;23.42;;
25439;SDS011;13365;52.208;5.488;2023-06-22T05:44:14;40.15;;;23.67;;
25439;SDS011;13365;52.208;5.488;2023-06-22T05:46:40;37.13;;;24.05;;
25439;SDS011;13365;52.208;5.488;2023-06-22T05:49:09;35.80;;;23.00;;
25439;SDS011;13365;52.208;5.488;2023-06-22T05:51:36;37.75;;;23.42;;
25439;SDS011;13365;52.208;5.488;2023-06-22T05:54:01;36.72;;;23.83;;
25439;SDS011;13365;52.208;5.488;2023-06-22T05:56:27;35.75;;;24.02;;
25439;SDS011;13365;52.208;5.488;2023-06-22T05:58:54;35.60;;;22.25;;
25439;SDS011;13365;52.208;5.488;2023-06-22T06:01:19;36.90;;;24.08;;
25439;SDS011;13365;52.208;5.488;2023-06-22T06:03:45;33.40;;;22.10;;
25439;SDS011;13365;52.208;5.488;2023-06-22T06:06:11;35.17;;;22.98;;
25439;SDS011;13365;52.208;5.488;2023-06-22T06:08:37;36.47;;;23.50;;
25439;SDS011;13365;52.208;5.488;2023-06-22T06:11:03;35.70;;;24.10;;
25439;SDS011;13365;52.208;5.488;2023-06-22T06:13:28;34.88;;;22.52;;
25439;SDS011;13365;52.208;5.488;2023-06-22T06:15:56;31.92;;;21.83;;
25439;SDS011;13365;52.208;5.488;2023-06-22T06:18:22;34.13;;;21.05;;
25439;SDS011;13365;52.208;5.488;2023-06-22T06:20:48;32.17;;;21.05;;
25439;SDS011;13365;52.208;5.488;2023-06-22T06:23:13;34.78;;;23.58;;
25439;SDS011;13365;52.208;5.488;2023-06-22T06:25:39;36.10;;;23.38;;
25439;SDS011;13365;52.208;5.488;2023-06-22T06:28:04;32.25;;;22.45;;
25439;SDS011;13365;52.208;5.488;2023-06-22T06:30:30;33.90;;;23.13;;
25439;SDS011;13365;52.208;5.488;2023-06-22T06:32:56;32.50;;;21.23;;
25439;SDS011;13365;52.208;5.488;2023-06-22T06:35:21;29.42;;;20.27;;
25439;SDS011;13365;52.208;5.488;2023-06-22T06:37:48;31.27;;;20.55;;
25439;SDS011;13365;52.208;5.488;2023-06-22T06:40:14;29.70;;;21.25;;
25439;SDS011;13365;52.208;5.488;2023-06-22T06:42:41;31.23;;;21.08;;
25439;SDS011;13365;52.208;5.488;2023-06-22T06:45:09;29.17;;;19.77;;
25439;SDS011;13365;52.208;5.488;2023-06-22T06:47:36;30.88;;;19.33;;
25439;SDS011;13365;52.208;5.488;2023-06-22T06:50:03;28.77;;;20.00;;
25439;SDS011;13365;52.208;5.488;2023-06-22T06:52:29;25.85;;;19.20;;
25439;SDS011;13365;52.208;5.488;2023-06-22T06:54:55;27.08;;;19.80;;
25439;SDS011;13365;52.208;5.488;2023-06-22T06:57:20;31.25;;;18.58;;
25439;SDS011;13365;52.208;5.488;2023-06-22T06:59:47;27.90;;;17.88;;
25439;SDS011;13365;52.208;5.488;2023-06-22T07:02:14;27.60;;;16.40;;
25439;SDS011;13365;52.208;5.488;2023-06-22T07:04:41;24.88;;;16.63;;
25439;SDS011;13365;52.208;5.488;2023-06-22T07:07:06;26.83;;;15.23;;
25439;SDS011;13365;52.208;5.488;2023-06-22T07:09:32;25.10;;;17.00;;
25439;SDS011;13365;52.208;5.488;2023-06-22T07:11:57;27.67;;;16.25;;
25439;SDS011;13365;52.208;5.488;2023-06-22T07:14:23;25.52;;;13.90;;
25439;SDS011;13365;52.208;5.488;2023-06-22T07:16:49;17.63;;;12.40;;
25439;SDS011;13365;52.208;5.488;2023-06-22T07:19:14;17.20;;;12.40;;
25439;SDS011;13365;52.208;5.488;2023-06-22T07:21:40;18.73;;;12.00;;
25439;SDS011;13365;52.208;5.488;2023-06-22T07:24:06;18.88;;;11.85;;
25439;SDS011;13365;52.208;5.488;2023-06-22T07:26:32;15.23;;;11.35;;
25439;SDS011;13365;52.208;5.488;2023-06-22T07:28:58;17.88;;;12.35;;
25439;SDS011;13365;52.208;5.488;2023-06-22T07:31:24;19.30;;;11.40;;
25439;SDS011;13365;52.208;5.488;2023-06-22T07:33:50;14.27;;;9.65;;
25439;SDS011;13365;52.208;5.488;2023-06-22T07:36:16;13.73;;;9.85;;
25439;SDS011;13365;52.208;5.488;2023-06-22T07:38:42;15.30;;;10.07;;
25439;SDS011;13365;52.208;5.488;2023-06-22T07:41:07;15.23;;;10.00;;
25439;SDS011;13365;52.208;5.488;2023-06-22T07:43:33;13.93;;;9.73;;
25439;SDS011;13365;52.208;5.488;2023-06-22T07:46:01;12.05;;;9.13;;
25439;SDS011;13365;52.208;5.488;2023-06-22T07:48:28;14.95;;;9.10;;
25439;SDS011;13365;52.208;5.488;2023-06-22T07:50:54;13.48;;;8.68;;
25439;SDS011;13365;52.208;5.488;2023-06-22T07:53:21;12.40;;;8.80;;
25439;SDS011;13365;52.208;5.488;2023-06-22T07:55:48;11.07;;;8.13;;
25439;SDS011;13365;52.208;5.488;2023-06-22T07:58:13;12.65;;;8.95;;
25439;SDS011;13365;52.208;5.488;2023-06-22T08:00:40;10.70;;;7.70;;
25439;SDS011;13365;52.208;5.488;2023-06-22T08:03:06;11.93;;;7.43;;
25439;SDS011;13365;52.208;5.488;2023-06-22T08:05:32;9.82;;;7.32;;
25439;SDS011;13365;52.208;5.488;2023-06-22T08:07:57;12.00;;;7.90;;
25439;SDS011;13365;52.208;5.488;2023-06-22T08:10:23;11.70;;;8.30;;
25439;SDS011;13365;52.208;5.488;2023-06-22T08:12:48;10.63;;;7.53;;
25439;SDS011;13365;52.208;5.488;2023-06-22T08:15:14;10.77;;;7.55;;
25439;SDS011;13365;52.208;5.488;2023-06-22T08:17:39;10.00;;;7.22;;
25439;SDS011;13365;52.208;5.488;2023-06-22T08:20:06;11.90;;;8.02;;
25439;SDS011;13365;52.208;5.488;2023-06-22T08:22:39;10.30;;;7.63;;
25439;SDS011;13365;52.208;5.488;2023-06-22T08:25:05;12.30;;;7.20;;
25439;SDS011;13365;52.208;5.488;2023-06-22T08:27:31;9.98;;;7.57;;
25439;SDS011;13365;52.208;5.488;2023-06-22T08:29:57;12.35;;;7.72;;
25439;SDS011;13365;52.208;5.488;2023-06-22T08:32:27;10.27;;;6.75;;
25439;SDS011;13365;52.208;5.488;2023-06-22T08:34:56;10.65;;;6.97;;
25439;SDS011;13365;52.208;5.488;2023-06-22T08:37:22;10.27;;;6.03;;
25439;SDS011;13365;52.208;5.488;2023-06-22T08:39:55;8.93;;;5.63;;
25439;SDS011;13365;52.208;5.488;2023-06-22T08:42:24;9.32;;;6.05;;
25439;SDS011;13365;52.208;5.488;2023-06-22T08:44:50;12.75;;;5.57;;
25439;SDS011;13365;52.208;5.488;2023-06-22T08:47:16;8.32;;;4.88;;
25439;SDS011;13365;52.208;5.488;2023-06-22T08:49:41;7.53;;;4.93;;
25439;SDS011;13365;52.208;5.488;2023-06-22T08:52:07;8.07;;;4.40;;
25439;SDS011;13365;52.208;5.488;2023-06-22T08:54:33;6.95;;;4.95;;
25439;SDS011;13365;52.208;5.488;2023-06-22T08:56:59;7.68;;;4.53;;
25439;SDS011;13365;52.208;5.488;2023-06-22T08:59:25;11.13;;;5.20;;
25439;SDS011;13365;52.208;5.488;2023-06-22T09:01:51;9.05;;;5.80;;
25439;SDS011;13365;52.208;5.488;2023-06-22T09:04:16;8.85;;;5.25;;
25439;SDS011;13365;52.208;5.488;2023-06-22T09:06:42;9.63;;;5.72;;
25439;SDS011;13365;52.208;5.488;2023-06-22T09:09:12;9.07;;;4.95;;
25439;SDS011;13365;52.208;5.488;2023-06-22T09:11:38;8.38;;;4.88;;
25439;SDS011;13365;52.208;5.488;2023-06-22T09:14:03;8.80;;;4.13;;
25439;SDS011;13365;52.208;5.488;2023-06-22T09:16:29;8.40;;;4.13;;
25439;SDS011;13365;52.208;5.488;2023-06-22T09:18:55;7.85;;;3.45;;
25439;SDS011;13365;52.208;5.488;2023-06-22T09:21:20;10.40;;;4.38;;
25439;SDS011;13365;52.208;5.488;2023-06-22T09:23:47;6.22;;;3.97;;
25439;SDS011;13365;52.208;5.488;2023-06-22T09:26:16;6.50;;;3.88;;
25439;SDS011;13365;52.208;5.488;2023-06-22T09:28:44;5.72;;;3.47;;
25439;SDS011;13365;52.208;5.488;2023-06-22T09:31:10;6.22;;;3.58;;
25439;SDS011;13365;52.208;5.488;2023-06-22T09:33:36;6.60;;;3.65;;
25439;SDS011;13365;52.208;5.488;2023-06-22T09:36:05;5.28;;;3.03;;
25439;SDS011;13365;52.208;5.488;2023-06-22T09:38:34;5.32;;;2.80;;
25439;SDS011;13365;52.208;5.488;2023-06-22T09:41:00;5.13;;;2.90;;
25439;SDS011;13365;52.208;5.488;2023-06-22T09:43:25;6.13;;;3.42;;
25439;SDS011;13365;52.208;5.488;2023-06-22T09:45:51;5.43;;;3.20;;
25439;SDS011;13365;52.208;5.488;2023-06-22T09:48:17;5.82;;;3.60;;
25439;SDS011;13365;52.208;5.488;2023-06-22T09:50:42;5.00;;;3.38;;
25439;SDS011;13365;52.208;5.488;2023-06-22T09:53:08;6.10;;;3.60;;
25439;SDS011;13365;52.208;5.488;2023-06-22T09:55:34;5.40;;;2.88;;
25439;SDS011;13365;52.208;5.488;2023-06-22T09:57:59;5.40;;;3.35;;
25439;SDS011;13365;52.208;5.488;2023-06-22T10:00:25;4.13;;;3.05;;
25439;SDS011;13365;52.208;5.488;2023-06-22T10:02:51;6.88;;;3.50;;
25439;SDS011;13365;52.208;5.488;2023-06-22T10:05:17;5.20;;;4.05;;
25439;SDS011;13365;52.208;5.488;2023-06-22T10:07:43;4.70;;;3.13;;
25439;SDS011;13365;52.208;5.488;2023-06-22T10:10:12;4.78;;;3.10;;
25439;SDS011;13365;52.208;5.488;2023-06-22T10:12:42;6.20;;;3.58;;
25439;SDS011;13365;52.208;5.488;2023-06-22T10:15:12;6.68;;;3.30;;
25439;SDS011;13365;52.208;5.488;2023-06-22T10:17:38;4.57;;;3.25;;
25439;SDS011;13365;52.208;5.488;2023-06-22T10:20:05;5.25;;;3.30;;
25439;SDS011;13365;52.208;5.488;2023-06-22T10:22:38;5.82;;;3.45;;
25439;SDS011;13365;52.208;5.488;2023-06-22T10:25:05;9.05;;;4.93;;
25439;SDS011;13365;52.208;5.488;2023-06-22T10:27:31;11.57;;;4.95;;
25439;SDS011;13365;52.208;5.488;2023-06-22T10:29:57;10.27;;;6.78;;
25439;SDS011;13365;52.208;5.488;2023-06-22T10:32:22;10.07;;;5.72;;
25439;SDS011;13365;52.208;5.488;2023-06-22T10:34:48;7.72;;;4.30;;
25439;SDS011;13365;52.208;5.488;2023-06-22T10:37:13;8.82;;;5.55;;
25439;SDS011;13365;52.208;5.488;2023-06-22T10:39:39;9.63;;;6.40;;
25439;SDS011;13365;52.208;5.488;2023-06-22T10:42:04;12.32;;;6.75;;
25439;SDS011;13365;52.208;5.488;2023-06-22T10:44:30;10.85;;;7.28;;
25439;SDS011;13365;52.208;5.488;2023-06-22T10:46:56;14.05;;;8.10;;
25439;SDS011;13365;52.208;5.488;2023-06-22T10:49:21;13.45;;;8.80;;
25439;SDS011;13365;52.208;5.488;2023-06-22T10:51:47;10.77;;;8.40;;
25439;SDS011;13365;52.208;5.488;2023-06-22T10:54:12;14.38;;;8.77;;
25439;SDS011;13365;52.208;5.488;2023-06-22T10:56:39;14.13;;;8.40;;
25439;SDS011;13365;52.208;5.488;2023-06-22T10:59:05;12.80;;;8.82;;
25439;SDS011;13365;52.208;5.488;2023-06-22T11:01:30;11.48;;;8.07;;
25439;SDS011;13365;52.208;5.488;2023-06-22T11:03:56;12.00;;;8.30;;
25439;SDS011;13365;52.208;5.488;2023-06-22T11:06:22;13.43;;;8.13;;
25439;SDS011;13365;52.208;5.488;2023-06-22T11:08:47;14.82;;;8.20;;
25439;SDS011;13365;52.208;5.488;2023-06-22T11:11:13;19.88;;;8.13;;
25439;SDS011;13365;52.208;5.488;2023-06-22T11:13:38;11.82;;;7.10;;
25439;SDS011;13365;52.208;5.488;2023-06-22T11:16:04;12.82;;;8.38;;
25439;SDS011;13365;52.208;5.488;2023-06-22T11:18:30;17.30;;;8.27;;
25439;SDS011;13365;52.208;5.488;2023-06-22T11:20:58;14.85;;;8.80;;
25439;SDS011;13365;52.208;5.488;2023-06-22T11:23:23;12.32;;;7.85;;
25439;SDS011;13365;52.208;5.488;2023-06-22T11:25:51;14.93;;;9.88;;
25439;SDS011;13365;52.208;5.488;2023-06-22T11:28:16;13.52;;;8.88;;
25439;SDS011;13365;52.208;5.488;2023-06-22T11:30:42;16.73;;;10.02;;
25439;SDS011;13365;52.208;5.488;2023-06-22T11:33:07;11.35;;;8.20;;
25439;SDS011;13365;52.208;5.488;2023-06-22T11:35:33;13.15;;;8.68;;
25439;SDS011;13365;52.208;5.488;2023-06-22T11:37:59;13.07;;;8.63;;
25439;SDS011;13365;52.208;5.488;2023-06-22T11:40:24;13.27;;;8.98;;
25439;SDS011;13365;52.208;5.488;2023-06-22T11:42:50;13.38;;;8.18;;
25439;SDS011;13365;52.208;5.488;2023-06-22T11:45:15;12.25;;;8.20;;
25439;SDS011;13365;52.208;5.488;2023-06-22T11:47:42;13.38;;;8.25;;
25439;SDS011;13365;52.208;5.488;2023-06-22T11:50:08;12.07;;;7.32;;
25439;SDS011;13365;52.208;5.488;2023-06-22T11:52:33;12.65;;;8.23;;
25439;SDS011;13365;52.208;5.488;2023-06-22T11:55:00;11.27;;;7.50;;
25439;SDS011;13365;52.208;5.488;2023-06-22T11:57:28;11.07;;;7.40;;
25439;SDS011;13365;52.208;5.488;2023-06-22T11:59:54;12.95;;;7.93;;
25439;SDS011;13365;52.208;5.488;2023-06-22T12:02:19;10.80;;;7.45;;
25439;SDS011;13365;52.208;5.488;2023-06-22T12:04:45;11.25;;;7.35;;
25439;SDS011;13365;52.208;5.488;2023-06-22T12:07:11;9.75;;;6.68;;
25439;SDS011;13365;52.208;5.488;2023-06-22T12:09:36;10.45;;;6.88;;
25439;SDS011;13365;52.208;5.488;2023-06-22T12:12:02;12.65;;;7.40;;
25439;SDS011;13365;52.208;5.488;2023-06-22T12:14:28;13.38;;;6.97;;
25439;SDS011;13365;52.208;5.488;2023-06-22T12:16:53;13.88;;;7.90;;
25439;SDS011;13365;52.208;5.488;2023-06-22T12:19:19;11.10;;;8.38;;
25439;SDS011;13365;52.208;5.488;2023-06-22T12:21:44;10.45;;;7.10;;
25439;SDS011;13365;52.208;5.488;2023-06-22T12:24:10;11.52;;;7.40;;
25439;SDS011;13365;52.208;5.488;2023-06-22T12:26:36;14.00;;;7.80;;
25439;SDS011;13365;52.208;5.488;2023-06-22T12:29:03;9.50;;;6.40;;
25439;SDS011;13365;52.208;5.488;2023-06-22T12:31:28;11.75;;;7.53;;
25439;SDS011;13365;52.208;5.488;2023-06-22T12:33:54;13.80;;;8.27;;
25439;SDS011;13365;52.208;5.488;2023-06-22T12:36:19;11.23;;;7.75;;
25439;SDS011;13365;52.208;5.488;2023-06-22T12:38:45;12.05;;;7.43;;
25439;SDS011;13365;52.208;5.488;2023-06-22T12:41:10;14.65;;;7.05;;
25439;SDS011;13365;52.208;5.488;2023-06-22T12:43:36;9.27;;;6.57;;
25439;SDS011;13365;52.208;5.488;2023-06-22T12:46:01;16.85;;;8.05;;
25439;SDS011;13365;52.208;5.488;2023-06-22T12:48:27;11.40;;;7.47;;
25439;SDS011;13365;52.208;5.488;2023-06-22T12:50:53;11.75;;;8.10;;
25439;SDS011;13365;52.208;5.488;2023-06-22T12:53:18;11.38;;;7.53;;
25439;SDS011;13365;52.208;5.488;2023-06-22T12:55:44;11.05;;;7.57;;
25439;SDS011;13365;52.208;5.488;2023-06-22T12:58:09;9.65;;;7.00;;
25439;SDS011;13365;52.208;5.488;2023-06-22T13:00:35;12.15;;;7.55;;
25439;SDS011;13365;52.208;5.488;2023-06-22T13:03:00;12.82;;;7.70;;
25439;SDS011;13365;52.208;5.488;2023-06-22T13:05:26;12.93;;;8.55;;
25439;SDS011;13365;52.208;5.488;2023-06-22T13:07:51;11.70;;;8.35;;
25439;SDS011;13365;52.208;5.488;2023-06-22T13:10:17;13.15;;;6.90;;
25439;SDS011;13365;52.208;5.488;2023-06-22T13:12:42;10.05;;;7.15;;
25439;SDS011;13365;52.208;5.488;2023-06-22T13:15:08;8.77;;;6.70;;
25439;SDS011;13365;52.208;5.488;2023-06-22T13:17:34;9.10;;;6.00;;
25439;SDS011;13365;52.208;5.488;2023-06-22T13:19:59;13.07;;;7.03;;
25439;SDS011;13365;52.208;5.488;2023-06-22T13:22:31;10.52;;;6.68;;
25439;SDS011;13365;52.208;5.488;2023-06-22T13:24:59;8.77;;;6.78;;
25439;SDS011;13365;52.208;5.488;2023-06-22T13:27:25;11.25;;;6.93;;
25439;SDS011;13365;52.208;5.488;2023-06-22T13:29:51;15.57;;;8.85;;
25439;SDS011;13365;52.208;5.488;2023-06-22T13:32:17;12.80;;;7.97;;
25439;SDS011;13365;52.208;5.488;2023-06-22T13:34:43;15.45;;;7.95;;
25439;SDS011;13365;52.208;5.488;2023-06-22T13:37:08;14.32;;;8.90;;
25439;SDS011;13365;52.208;5.488;2023-06-22T13:39:34;14.38;;;8.52;;
25439;SDS011;13365;52.208;5.488;2023-06-22T13:41:59;12.85;;;9.48;;
25439;SDS011;13365;52.208;5.488;2023-06-22T13:44:25;11.23;;;8.52;;
25439;SDS011;13365;52.208;5.488;2023-06-22T13:46:53;12.13;;;8.25;;
25439;SDS011;13365;52.208;5.488;2023-06-22T13:49:19;16.00;;;10.20;;
25439;SDS011;13365;52.208;5.488;2023-06-22T13:51:46;14.32;;;9.32;;
25439;SDS011;13365;52.208;5.488;2023-06-22T13:54:13;13.63;;;9.10;;
25439;SDS011;13365;52.208;5.488;2023-06-22T13:56:38;14.27;;;9.18;;
25439;SDS011;13365;52.208;5.488;2023-06-22T13:59:04;13.77;;;9.60;;
25439;SDS011;13365;52.208;5.488;2023-06-22T14:01:29;10.77;;;9.18;;
25439;SDS011;13365;52.208;5.488;2023-06-22T14:03:55;17.58;;;10.43;;
25439;SDS011;13365;52.208;5.488;2023-06-22T14:06:20;12.80;;;10.05;;
25439;SDS011;13365;52.208;5.488;2023-06-22T14:08:46;15.68;;;11.38;;
25439;SDS011;13365;52.208;5.488;2023-06-22T14:11:11;12.55;;;9.77;;
25439;SDS011;13365;52.208;5.488;2023-06-22T14:13:37;14.75;;;10.05;;
25439;SDS011;13365;52.208;5.488;2023-06-22T14:16:03;12.23;;;10.55;;
25439;SDS011;13365;52.208;5.488;2023-06-22T14:18:29;21.13;;;11.18;;
25439;SDS011;13365;52.208;5.488;2023-06-22T14:20:55;14.18;;;10.50;;
25439;SDS011;13365;52.208;5.488;2023-06-22T14:23:20;16.70;;;11.55;;
25439;SDS011;13365;52.208;5.488;2023-06-22T14:25:46;22.63;;;11.25;;
25439;SDS011;13365;52.208;5.488;2023-06-22T14:28:11;21.33;;;12.48;;
25439;SDS011;13365;52.208;5.488;2023-06-22T14:30:37;17.20;;;11.63;;
25439;SDS011;13365;52.208;5.488;2023-06-22T14:33:02;16.33;;;12.38;;
25439;SDS011;13365;52.208;5.488;2023-06-22T14:35:28;16.85;;;11.75;;
25439;SDS011;13365;52.208;5.488;2023-06-22T14:37:53;15.60;;;12.40;;